createdAt,value
2018-01-21T00:00:41.549Z,996.7
2018-01-21T00:10:56.864Z,996.8
2018-01-21T00:31:25.719Z,997.2
2018-01-21T00:41:39.434Z,997.3
2018-01-21T00:51:54.210Z,997.5
2018-01-21T01:02:08.612Z,997.8
2018-01-21T01:22:38.316Z,998.2
2018-01-21T01:32:52.176Z,998.3
2018-01-21T01:43:07.573Z,998.5
2018-01-21T01:53:22.909Z,998.7
2018-01-21T02:03:36.605Z,998.9
2018-01-21T02:13:51.268Z,999.1
2018-01-21T02:24:05.397Z,999.3
2018-01-21T02:34:20.846Z,999.5
2018-01-21T02:44:36.339Z,999.6
2018-01-21T02:54:50.981Z,999.8
2018-01-21T03:05:06.112Z,1000
2018-01-21T03:15:20.348Z,1000.1
2018-01-21T03:35:49.093Z,1000.4
2018-01-21T03:46:04.149Z,1000.7
2018-01-21T03:56:18.829Z,1000.8
2018-01-21T04:06:32.750Z,1001
2018-01-21T04:16:47.960Z,1001
2018-01-21T04:27:01.917Z,1001.2
2018-01-21T04:37:17.504Z,1001.5
2018-01-21T04:47:32.142Z,1001.6
2018-01-21T04:57:46.857Z,1001.9
2018-01-21T05:08:01.877Z,1002.1
2018-01-21T05:18:17.217Z,1002.2
2018-01-21T05:28:30.892Z,1002.2
2018-01-21T05:38:45.906Z,1002.3
2018-01-21T05:49:00.782Z,1002.5
2018-01-21T05:59:16.024Z,1002.6
2018-01-21T06:09:30.724Z,1002.8
2018-01-21T06:19:44.587Z,1003
2018-01-21T06:29:59.354Z,1003.2
2018-01-21T06:40:14.764Z,1003.4
2018-01-21T06:50:30.189Z,1003.5
2018-01-21T07:00:43.965Z,1003.8
2018-01-21T07:10:58.949Z,1004.1
2018-01-21T07:21:13.689Z,1004.3
2018-01-21T07:31:28.590Z,1004.5
2018-01-21T07:41:44.187Z,1004.8
2018-01-21T07:51:58.997Z,1005
2018-01-21T08:02:13.182Z,1005.2
2018-01-21T08:12:28.780Z,1005.5
2018-01-21T08:22:42.579Z,1005.6
2018-01-21T08:32:57.550Z,1005.9
2018-01-21T08:43:13.026Z,1006
2018-01-21T09:03:43.245Z,1006.2
2018-01-21T09:13:58.833Z,1006.4
2018-01-21T09:24:13.922Z,1006.6
2018-01-21T09:34:28.799Z,1006.9
2018-01-21T09:44:42.503Z,1006.9
2018-01-21T09:54:57.984Z,1006.9
2018-01-21T10:05:12.607Z,1007.2
2018-01-21T10:15:26.563Z,1007.3
2018-01-21T10:25:42.218Z,1007.5
2018-01-21T10:35:57.656Z,1007.5
2018-01-21T10:46:11.857Z,1007.7
2018-01-21T10:56:25.927Z,1007.8
2018-01-21T11:06:40.342Z,1007.9
2018-01-21T11:16:54.540Z,1007.9
2018-01-21T11:27:09.927Z,1008
2018-01-21T11:37:24.218Z,1008
2018-01-21T11:47:39.225Z,1007.8
2018-01-21T11:57:52.915Z,1007.8
2018-01-21T12:08:08.563Z,1007.9
2018-01-21T12:18:23.812Z,1008.1
2018-01-21T12:28:37.941Z,1008.1
2018-01-21T12:38:53.248Z,1008.1
2018-01-21T12:49:08.035Z,1008.3
2018-01-21T12:59:23.411Z,1008.5
2018-01-21T13:09:39.079Z,1008.6
2018-01-21T13:19:53.009Z,1008.8
2018-01-21T13:30:08.603Z,1008.5
2018-01-21T13:40:23.474Z,1008.6
2018-01-21T13:50:38.140Z,1008.7
2018-01-21T14:00:52.132Z,1008.8
2018-01-21T14:11:07.202Z,1008.9
2018-01-21T14:21:22.063Z,1009
2018-01-21T14:31:36.022Z,1009
2018-01-21T14:41:50.961Z,1009.2
2018-01-21T14:52:06.220Z,1009.2
2018-01-21T15:02:20.440Z,1009.3
2018-01-21T15:12:35.816Z,1009.3
2018-01-21T15:22:51.011Z,1009.1
2018-01-21T15:33:06.291Z,1009.1
2018-01-21T15:43:21.807Z,1008.9
2018-01-21T15:53:36.420Z,1008.8
2018-01-21T16:03:51.540Z,1008.7
2018-01-21T16:14:06.696Z,1008.8
2018-01-21T16:24:21.922Z,1008.7
2018-01-21T16:34:36.031Z,1008.5
2018-01-21T16:44:49.780Z,1008.5
2018-01-21T16:55:04.246Z,1008.4
2018-01-21T17:05:18.236Z,1008.5
2018-01-21T17:15:31.913Z,1008.5
2018-01-21T17:25:46.335Z,1008.6
2018-01-21T17:36:01.843Z,1008.4
2018-01-21T17:46:16.336Z,1008.5
2018-01-21T17:56:30.101Z,1008.5
2018-01-21T18:06:45.479Z,1008.6
2018-01-21T18:16:59.436Z,1008.6
2018-01-21T18:27:13.193Z,1008.3
2018-01-21T18:37:27.331Z,1008.2
2018-01-21T18:47:42.801Z,1008
2018-01-21T18:57:57.023Z,1007.8
2018-01-21T19:08:11.718Z,1008
2018-01-21T19:18:26.347Z,1008
2018-01-21T19:28:39.995Z,1007.8
2018-01-21T19:38:55.677Z,1007.4
2018-01-21T19:49:10.546Z,1007.4
2018-01-21T19:59:24.427Z,1007.1
2018-01-21T20:09:39.912Z,1007.2
2018-01-21T20:19:54.214Z,1007.3
2018-01-21T20:30:08.563Z,1007
2018-01-21T20:40:23.839Z,1006.8
2018-01-21T20:50:38.737Z,1006.9
2018-01-21T21:00:53.183Z,1006.7
2018-01-21T21:11:06.641Z,1006.6
2018-01-21T21:21:21.374Z,1006.3
2018-01-21T21:31:36.661Z,1006.4
2018-01-21T21:41:50.331Z,1006.3
2018-01-21T21:52:04.642Z,1006.1
2018-01-21T22:02:20.095Z,1005.6
2018-01-21T22:12:34.504Z,1005.4
2018-01-21T22:22:48.292Z,1005.4
2018-01-21T22:43:18.654Z,1005.1
2018-01-21T22:53:33.259Z,1004.9
2018-01-21T23:03:47.712Z,1004.8
2018-01-21T23:14:02.272Z,1004.6
2018-01-21T23:24:16.458Z,1004.6
2018-01-21T23:34:30.366Z,1004.3
2018-01-21T23:44:44.720Z,1003.8
2018-01-21T23:54:58.793Z,1003.9
